Tanica Sunbeam — OUVD2 — position and weather

sailwx.info

Track history (hours):
 
Tides and Currents Weather Stations Pressure Air Temp Water Temp Dewpoint Dewpoint Depression Visibility Wind Speed Wind Dir Waves Ship Positions

Tanica Sunbeam

Last reported at 2017-Nov-06 00:03 UTC. Time now 2017-Nov-21 11:54 UTC.
Position N 25°28' W 079°47'.
Warning: this ship's position is 15 days out of date.

Length 66 m; draft 2.8 m.

Type: Cargo ship. MMSI: 219208000.

Date/timePositionNaut miles runAvg speedWind from/ knotsBaromVisibWave heightAir tempDewpointWater temp
2017-Nov-06 00:03N 25°28' W 079°47'1 5.9
2017-Nov-05 23:53N 25°29' W 079°48'2 5.8
2017-Nov-05 23:30N 25°30' W 079°49'3 5.6
2017-Nov-05 23:00N 25°33' W 079°51'3 5.7
2017-Nov-05 22:30N 25°35' W 079°53'3 5.7
2017-Nov-05 22:00N 25°37' W 079°55'3 5.7
2017-Nov-05 21:30N 25°39' W 079°57'3 5.5
2017-Nov-05 21:00N 25°41' W 079°59'3 6.0
2017-Nov-05 20:30N 25°43' W 080°02'3 6.8
2017-Nov-05 20:00N 25°45' W 080°04'4 7.8
2017-Nov-05 19:30N 25°46' W 080°09'3 5.1
2017-Nov-05 19:00N 25°46' W 080°12'2 3.1
2017-Nov-05 18:30N 25°47' W 080°13'2 3.2
2017-Nov-05 18:00N 25°48' W 080°15'1 1.3
2017-Nov-05 17:24N 25°48' W 080°15'0 0.0
2017-Nov-05 17:00N 25°48' W 080°15'0 0.0
2017-Nov-05 16:27N 25°48' W 080°15'0 0.0
2017-Nov-05 15:54N 25°48' W 080°15'0 0.0
2017-Nov-05 15:30N 25°48' W 080°15'0 0.0
2017-Nov-05 14:57N 25°48' W 080°15'0 0.0
2017-Nov-05 14:27N 25°48' W 080°15'0 0.0
2017-Nov-05 14:00N 25°48' W 080°15'0 0.0
2017-Nov-05 13:27N 25°48' W 080°15'0 0.0
2017-Nov-05 12:57N 25°48' W 080°15'0 0.0
2017-Nov-05 12:30N 25°48' W 080°15'0 0.0
2017-Nov-05 12:00N 25°48' W 080°15'0 0.0
2017-Nov-05 11:30N 25°48' W 080°15'0 0.0
2017-Nov-05 11:00N 25°48' W 080°15'0 0.0
2017-Nov-05 10:27N 25°48' W 080°15'0 0.0
2017-Nov-05 10:00N 25°48' W 080°15'0 0.0
2017-Nov-05 09:30N 25°48' W 080°15'0 0.0
2017-Nov-05 09:00N 25°48' W 080°15'0 0.0
2017-Nov-05 08:30N 25°48' W 080°15'0 0.0
2017-Nov-05 08:00N 25°48' W 080°15'0 0.0
2017-Nov-05 07:23N 25°48' W 080°15'0 0.0
2017-Nov-05 06:59N 25°48' W 080°15'0 0.0
2017-Nov-05 06:23N 25°48' W 080°15'0 0.0
2017-Nov-05 05:56N 25°48' W 080°15'0 0.0
2017-Nov-05 05:26N 25°48' W 080°15'0 0.0
2017-Nov-05 04:59N 25°48' W 080°15'0 0.0
2017-Nov-05 04:26N 25°48' W 080°15'0 0.0
2017-Nov-05 03:59N 25°48' W 080°15'0 0.0
2017-Nov-05 03:29N 25°48' W 080°15'0 0.0
2017-Nov-05 02:59N 25°48' W 080°15'0 0.0
2017-Nov-05 02:29N 25°48' W 080°15'0 0.0
2017-Nov-05 01:59N 25°48' W 080°15'0 0.0
2017-Nov-05 01:29N 25°48' W 080°15'0 0.0
2017-Nov-05 00:59N 25°48' W 080°15'0 0.0
2017-Nov-05 00:26N 25°48' W 080°15'0 0.0
2017-Nov-04 23:59N 25°48' W 080°15'0 0.0
2017-Nov-04 23:26N 25°48' W 080°15'0 0.0
2017-Nov-04 22:59N 25°48' W 080°15'0 0.0
2017-Nov-04 22:23N 25°48' W 080°15'0 0.0
2017-Nov-04 21:56N 25°48' W 080°15'0 0.0
2017-Nov-04 21:29N 25°48' W 080°15'0 0.0
2017-Nov-04 20:59N 25°48' W 080°15'0 0.0
2017-Nov-04 20:29N 25°48' W 080°15'0 0.0
2017-Nov-04 19:59N 25°48' W 080°15'0 0.0
2017-Nov-04 19:26N 25°48' W 080°15'0 0.0
2017-Nov-04 18:59N 25°48' W 080°15'0 0.0
2017-Nov-04 18:29N 25°48' W 080°15'0 0.0
2017-Nov-04 17:58N 25°48' W 080°15'0 0.0
2017-Nov-04 17:28N 25°48' W 080°15'0 0.0
2017-Nov-04 16:58N 25°48' W 080°15'0 0.0
2017-Nov-04 16:28N 25°48' W 080°15'0 0.0
2017-Nov-04 15:58N 25°48' W 080°15'0 0.0
2017-Nov-04 15:28N 25°48' W 080°15'0 0.0
2017-Nov-04 14:58N 25°48' W 080°15'0 0.0
2017-Nov-04 14:28N 25°48' W 080°15'0 0.0
2017-Nov-04 13:58N 25°48' W 080°15'0 0.0
2017-Nov-04 13:25N 25°48' W 080°15'0 0.0
2017-Nov-04 12:58N 25°48' W 080°15'0 0.0
2017-Nov-04 12:28N 25°48' W 080°15'0 0.0
2017-Nov-04 11:58N 25°48' W 080°15'0 0.0
2017-Nov-04 11:28N 25°48' W 080°15'0 0.0
2017-Nov-04 10:58N 25°48' W 080°15'0 0.0
2017-Nov-04 10:28N 25°48' W 080°15'0 0.0
2017-Nov-04 09:58N 25°48' W 080°15'0 0.0
2017-Nov-04 09:28N 25°48' W 080°15'0 0.0
2017-Nov-04 08:58N 25°48' W 080°15'0 0.0
2017-Nov-04 08:28N 25°48' W 080°15'0 0.0
2017-Nov-04 07:58N 25°48' W 080°15'0 0.0
2017-Nov-04 07:28N 25°48' W 080°15'0 0.0
2017-Nov-04 06:58N 25°48' W 080°15'0 0.0
2017-Nov-04 06:28N 25°48' W 080°15'0 0.0
2017-Nov-04 05:58N 25°48' W 080°15'0 0.0
2017-Nov-04 05:28N 25°48' W 080°15'0 0.0
2017-Nov-04 05:01N 25°48' W 080°15'0 0.0
2017-Nov-04 04:31N 25°48' W 080°15'0 0.0
2017-Nov-04 04:00N 25°48' W 080°15'0 0.0
2017-Nov-04 03:30N 25°48' W 080°15'0 0.0
2017-Nov-04 03:00N 25°48' W 080°15'0 0.0
2017-Nov-04 02:30N 25°48' W 080°15'0 0.0
2017-Nov-04 02:00N 25°48' W 080°15'0 0.0
2017-Nov-04 01:30N 25°48' W 080°15'0 0.0
2017-Nov-04 00:57N 25°48' W 080°15'0 0.0
2017-Nov-04 00:30N 25°48' W 080°15'0 0.0
2017-Nov-04 00:00N 25°48' W 080°15'0 0.0
2017-Nov-03 23:30N 25°48' W 080°15'0 0.0
2017-Nov-03 23:00N 25°48' W 080°15'0 0.0
2017-Nov-03 22:30N 25°48' W 080°15'0 0.0
2017-Nov-03 22:00N 25°48' W 080°15'0 0.0
2017-Nov-03 21:30N 25°48' W 080°15'0 0.0
2017-Nov-03 21:00N 25°48' W 080°15'0 0.0
2017-Nov-03 20:30N 25°48' W 080°15'0 0.0
2017-Nov-03 19:57N 25°48' W 080°15'0 0.0
2017-Nov-03 19:30N 25°48' W 080°15'0 0.0
2017-Nov-03 18:54N 25°48' W 080°15'0 0.0
2017-Nov-03 18:30N 25°48' W 080°15'0 0.0
2017-Nov-03 17:51N 25°48' W 080°15'0 0.0
2017-Nov-03 17:30N 25°48' W 080°15'0 0.0
2017-Nov-03 17:00N 25°48' W 080°15'0 0.0
2017-Nov-03 16:27N 25°48' W 080°15'0 0.0
2017-Nov-03 16:00N 25°48' W 080°15'0 0.0
2017-Nov-03 15:30N 25°48' W 080°15'0 0.0
2017-Nov-03 15:00N 25°48' W 080°15'0 0.0
2017-Nov-03 14:30N 25°48' W 080°15'0 0.0
2017-Nov-03 14:00N 25°48' W 080°15'0 0.0
2017-Nov-03 13:27N 25°48' W 080°15'0 0.0
2017-Nov-03 13:00N 25°48' W 080°15'0 0.0
2017-Nov-03 12:30N 25°48' W 080°15'0 0.0
2017-Nov-03 12:00N 25°48' W 080°15'0 0.0
2017-Nov-03 11:30N 25°48' W 080°15'0 0.0
2017-Nov-03 10:57N 25°48' W 080°15'0 0.0
2017-Nov-03 10:30N 25°48' W 080°15'0 0.0
2017-Nov-03 10:00N 25°48' W 080°15'0 0.0
2017-Nov-03 09:29N 25°48' W 080°15'0 0.0
2017-Nov-03 08:59N 25°48' W 080°15'0 0.0
2017-Nov-03 08:29N 25°48' W 080°15'0 0.0
2017-Nov-03 07:53N 25°48' W 080°15'0 0.0
2017-Nov-03 07:29N 25°48' W 080°15'0 0.0
2017-Nov-03 06:53N 25°48' W 080°15'0 0.0
2017-Nov-03 06:26N 25°48' W 080°15'0 0.0
2017-Nov-03 05:59N 25°48' W 080°15'0 0.0
2017-Nov-03 05:29N 25°48' W 080°15'0 0.0
2017-Nov-03 04:59N 25°48' W 080°15'0 0.0
2017-Nov-03 04:29N 25°48' W 080°15'0 0.0
2017-Nov-03 03:59N 25°48' W 080°15'0 0.0
2017-Nov-03 03:23N 25°48' W 080°15'0 0.0
2017-Nov-03 02:59N 25°48' W 080°15'0 0.0
2017-Nov-03 02:26N 25°48' W 080°15'0 0.0
2017-Nov-03 01:59N 25°48' W 080°15'0 0.0
2017-Nov-03 01:29N 25°48' W 080°15'0 0.0
2017-Nov-03 00:59N 25°48' W 080°15'0 0.0
2017-Nov-03 00:29N 25°48' W 080°15'0 0.0
2017-Nov-02 23:56N 25°48' W 080°15'0 0.0
2017-Nov-02 23:29N 25°48' W 080°15'0 0.0
2017-Nov-02 22:53N 25°48' W 080°15'0 0.0
2017-Nov-02 22:29N 25°48' W 080°15'0 0.0
2017-Nov-02 21:56N 25°48' W 080°15'0 0.0
2017-Nov-02 21:29N 25°48' W 080°15'0 0.0
2017-Nov-02 20:59N 25°48' W 080°15'0 0.0
2017-Nov-02 20:29N 25°48' W 080°15'0 0.0
2017-Nov-02 19:56N 25°48' W 080°15'0 0.0
2017-Nov-02 19:29N 25°48' W 080°15'0 0.0
2017-Nov-02 18:59N 25°48' W 080°15'0 0.0
2017-Nov-02 18:29N 25°48' W 080°15'0 0.0
2017-Nov-02 17:59N 25°48' W 080°15'0 0.0
2017-Nov-02 17:29N 25°48' W 080°15'0 0.0
2017-Nov-02 16:59N 25°48' W 080°15'0 0.0
2017-Nov-02 16:29N 25°48' W 080°15'0 0.0
2017-Nov-02 15:53N 25°48' W 080°15'0 0.0
2017-Nov-02 15:28N 25°48' W 080°15'0 0.0
2017-Nov-02 14:58N 25°48' W 080°15'0 0.0
2017-Nov-02 14:28N 25°48' W 080°15'0 0.0
2017-Nov-02 13:55N 25°48' W 080°15'0 0.0
2017-Nov-02 13:25N 25°48' W 080°15'0 0.0
2017-Nov-02 12:58N 25°48' W 080°15'0 0.0
2017-Nov-02 12:28N 25°48' W 080°15'0 0.0
2017-Nov-02 11:58N 25°48' W 080°15'0 0.0
2017-Nov-02 11:28N 25°48' W 080°15'0 0.0
2017-Nov-02 10:58N 25°48' W 080°15'0 0.0
2017-Nov-02 10:28N 25°48' W 080°15'0 0.0
2017-Nov-02 09:58N 25°48' W 080°15'0 0.0
2017-Nov-02 09:28N 25°48' W 080°15'0 0.0
2017-Nov-02 08:55N 25°48' W 080°15'0 0.0
2017-Nov-02 08:25N 25°48' W 080°15'0 0.0
2017-Nov-02 07:58N 25°48' W 080°15'0 0.0
2017-Nov-02 07:31N 25°48' W 080°15'0 0.0
2017-Nov-02 07:01N 25°48' W 080°15'0 0.0
2017-Nov-02 06:30N 25°48' W 080°15'0 0.0
2017-Nov-02 06:00N 25°48' W 080°15'0 0.0
2017-Nov-02 05:30N 25°48' W 080°15'0 0.0
2017-Nov-02 05:00N 25°48' W 080°15'0 0.0
2017-Nov-02 04:27N 25°48' W 080°15'0 0.0
2017-Nov-02 04:00N 25°48' W 080°15'0 0.0
2017-Nov-02 03:30N 25°48' W 080°15'0 0.0
2017-Nov-02 03:00N 25°48' W 080°15'0 0.0
2017-Nov-02 02:30N 25°48' W 080°15'0 0.0
2017-Nov-02 02:00N 25°48' W 080°15'0 0.0
2017-Nov-02 01:30N 25°48' W 080°15'0 0.0
2017-Nov-02 01:00N 25°48' W 080°15'0 0.0
2017-Nov-02 00:30N 25°48' W 080°15'0 0.0
2017-Nov-01 23:57N 25°48' W 080°15'0 0.0
2017-Nov-01 23:27N 25°48' W 080°15'0 0.0
2017-Nov-01 23:00N 25°48' W 080°15'0 0.0
2017-Nov-01 22:30N 25°48' W 080°15'0 0.0
2017-Nov-01 21:57N 25°48' W 080°15'0 0.0
2017-Nov-01 21:30N 25°48' W 080°15'0 0.0
2017-Nov-01 20:57N 25°48' W 080°15'0 0.0
2017-Nov-01 20:30N 25°48' W 080°15'0 0.0
2017-Nov-01 20:00N 25°48' W 080°15'0 0.0
2017-Nov-01 19:30N 25°48' W 080°15'0 0.0
2017-Nov-01 19:00N 25°48' W 080°15'0 0.0
2017-Nov-01 18:26N 25°48' W 080°15'0 0.0
2017-Nov-01 01:55N 25°48' W 080°15'0 0.0
2017-Nov-01 01:28N 25°48' W 080°15'0 0.0
2017-Nov-01 00:55N 25°48' W 080°15'0 0.0
2017-Nov-01 00:28N 25°48' W 080°15'0 0.0
2017-Oct-31 23:58N 25°48' W 080°15'0 0.0
2017-Oct-31 23:28N 25°48' W 080°15'0 0.0
2017-Oct-31 22:58N 25°48' W 080°15'0 0.0
2017-Oct-31 22:28N 25°48' W 080°15'0 0.0
2017-Oct-31 21:58N 25°48' W 080°15'0 0.0
2017-Oct-31 21:28N 25°48' W 080°15'0 0.0
2017-Oct-31 20:58N 25°48' W 080°15'0 0.0
2017-Oct-31 20:28N 25°48' W 080°15'0 0.0
2017-Oct-31 19:58N 25°48' W 080°15'0 0.0
2017-Oct-31 19:28N 25°48' W 080°15'0 0.0
2017-Oct-31 18:58N 25°48' W 080°15'0 0.0
2017-Oct-31 18:31N 25°48' W 080°15'0 0.0
2017-Oct-31 18:00N 25°48' W 080°15'0 0.0
2017-Oct-31 17:30N 25°48' W 080°15'0 0.0
2017-Oct-31 17:00N 25°48' W 080°15'0 0.0
2017-Oct-31 16:30N 25°48' W 080°15'0 0.0
2017-Oct-31 16:00N 25°48' W 080°15'0 0.0
2017-Oct-31 15:30N 25°48' W 080°15'0 0.0
2017-Oct-31 14:57N 25°48' W 080°15'0 0.0
2017-Oct-31 14:30N 25°48' W 080°15'0 0.0
2017-Oct-31 13:57N 25°48' W 080°15'0 0.0
2017-Oct-31 13:30N 25°48' W 080°15'0 0.0
2017-Oct-31 13:00N 25°48' W 080°15'0 0.0
2017-Oct-31 12:27N 25°48' W 080°15'0 0.0
2017-Oct-31 12:00N 25°48' W 080°15'0 0.0
2017-Oct-31 11:29N 25°48' W 080°15'0 0.0
2017-Oct-31 10:59N 25°48' W 080°15'0 0.0
2017-Oct-31 10:29N 25°48' W 080°15'0 0.0
2017-Oct-31 09:59N 25°48' W 080°15'0 0.0
2017-Oct-31 09:29N 25°48' W 080°15'0 0.0
2017-Oct-31 08:59N 25°48' W 080°15'0 0.0
2017-Oct-31 08:29N 25°48' W 080°15'0 0.0
2017-Oct-31 07:59N 25°48' W 080°15'0 0.0
2017-Oct-31 07:29N 25°48' W 080°15'0 0.0
2017-Oct-31 06:59N 25°48' W 080°15'0 0.0
2017-Oct-31 06:29N 25°48' W 080°15'0 0.0
2017-Oct-31 05:59N 25°48' W 080°15'0 0.0
2017-Oct-31 05:29N 25°48' W 080°15'0 0.0
2017-Oct-31 04:59N 25°48' W 080°15'0 0.0
2017-Oct-31 04:29N 25°48' W 080°15'0 0.0
2017-Oct-31 03:59N 25°48' W 080°15'0 0.0
2017-Oct-31 03:29N 25°48' W 080°15'0 0.0
2017-Oct-31 02:59N 25°48' W 080°15'0 0.0
2017-Oct-31 02:26N 25°48' W 080°15'0 0.0
2017-Oct-31 01:59N 25°48' W 080°15'0 0.0
2017-Oct-31 01:29N 25°48' W 080°15'0 0.0
2017-Oct-31 00:59N 25°48' W 080°15'0 0.0
2017-Oct-31 00:29N 25°48' W 080°15'0 0.0
2017-Oct-30 23:59N 25°48' W 080°15'0 0.0
2017-Oct-30 23:28N 25°48' W 080°15'0 0.0
2017-Oct-30 22:58N 25°48' W 080°15'0 0.0
2017-Oct-30 22:28N 25°48' W 080°15'0 0.0
2017-Oct-30 21:58N 25°48' W 080°15'0 0.0
2017-Oct-30 21:28N 25°48' W 080°15'0 0.0
2017-Oct-30 20:58N 25°48' W 080°15'0 0.0
2017-Oct-30 20:28N 25°48' W 080°15'0 0.0
2017-Oct-30 19:58N 25°48' W 080°15'0 0.0
2017-Oct-30 19:28N 25°48' W 080°15'0 0.0
2017-Oct-30 18:58N 25°48' W 080°15'0 0.0
2017-Oct-30 18:28N 25°48' W 080°15'0 0.0
2017-Oct-30 17:58N 25°48' W 080°15'0 0.0
2017-Oct-30 17:28N 25°48' W 080°15'0 0.0
2017-Oct-30 16:58N 25°48' W 080°15'0 0.0
2017-Oct-30 16:19N 25°48' W 080°15'0 0.0
2017-Oct-30 15:58N 25°48' W 080°15'0 0.0
2017-Oct-30 15:28N 25°48' W 080°15'0 0.0
2017-Oct-30 14:58N 25°48' W 080°15'0 0.0
2017-Oct-30 13:58N 25°48' W 080°15'0 0.0
2017-Oct-30 13:25N 25°48' W 080°15'0 0.0
2017-Oct-30 12:55N 25°48' W 080°15'0 0.0
2017-Oct-30 12:25N 25°48' W 080°15'0 0.0
2017-Oct-30 11:52N 25°48' W 080°15'0 0.0
2017-Oct-30 11:25N 25°48' W 080°15'0 0.0
2017-Oct-30 10:58N 25°48' W 080°15'0 0.0
2017-Oct-30 10:28N 25°48' W 080°15'0 0.0
2017-Oct-30 09:58N 25°48' W 080°15'0 0.0
2017-Oct-30 09:28N 25°48' W 080°15'0 0.0
2017-Oct-30 08:58N 25°48' W 080°15'0 0.0
2017-Oct-30 08:28N 25°48' W 080°15'0 0.0
2017-Oct-30 07:52N 25°48' W 080°15'0 0.0
2017-Oct-30 07:28N 25°48' W 080°15'0 0.0
2017-Oct-30 06:58N 25°48' W 080°15'0 0.0
2017-Oct-30 06:28N 25°48' W 080°15'0 0.0
2017-Oct-30 05:58N 25°48' W 080°15'0 0.0
2017-Oct-30 05:25N 25°48' W 080°15'0 0.0
2017-Oct-30 04:58N 25°48' W 080°15'0 0.0
2017-Oct-30 04:22N 25°48' W 080°15'0 0.0
2017-Oct-30 03:58N 25°48' W 080°15'0 0.0
2017-Oct-30 03:28N 25°48' W 080°15'0 0.0
2017-Oct-30 02:58N 25°48' W 080°15'0 0.0
2017-Oct-30 02:28N 25°48' W 080°15'0 0.0
2017-Oct-30 01:55N 25°48' W 080°15'0 0.0
2017-Oct-30 01:28N 25°48' W 080°15'0 0.0
2017-Oct-30 00:58N 25°48' W 080°15'0 0.0
2017-Oct-30 00:28N 25°48' W 080°15'0 0.0
2017-Oct-29 23:58N 25°48' W 080°15'0 0.0
2017-Oct-29 23:28N 25°48' W 080°15'0 0.0
2017-Oct-29 22:58N 25°48' W 080°15'0 0.0
2017-Oct-29 22:28N 25°48' W 080°15'0 0.0
2017-Oct-29 21:58N 25°48' W 080°15'0 0.0
2017-Oct-29 21:28N 25°48' W 080°15'0 0.0
2017-Oct-29 20:58N 25°48' W 080°15'0 0.0
2017-Oct-29 20:28N 25°48' W 080°15'0 0.0
2017-Oct-29 19:57N 25°48' W 080°15'0 0.0
2017-Oct-29 19:30N 25°48' W 080°15'0 0.0
2017-Oct-29 18:57N 25°48' W 080°15'0 0.0
2017-Oct-29 18:30N 25°48' W 080°15'0 0.0
2017-Oct-29 18:00N 25°48' W 080°15'0 0.0
2017-Oct-29 17:30N 25°48' W 080°15'0 0.0
2017-Oct-29 17:00N 25°48' W 080°15'0 0.0
2017-Oct-29 16:30N 25°48' W 080°15'0 0.0
2017-Oct-29 16:00N 25°48' W 080°15'0 0.0
2017-Oct-29 15:30N 25°48' W 080°15'0 0.0
2017-Oct-29 15:00N 25°48' W 080°15'0 0.0
2017-Oct-29 14:30N 25°48' W 080°15'0 0.0
2017-Oct-29 14:00N 25°48' W 080°15'0 0.0
2017-Oct-29 13:30N 25°48' W 080°15'0 0.0
2017-Oct-29 13:00N 25°48' W 080°15'0 0.0
2017-Oct-29 12:30N 25°48' W 080°15'0 0.0
2017-Oct-29 12:00N 25°48' W 080°15'0 0.0
2017-Oct-29 11:30N 25°48' W 080°15'0 0.0
2017-Oct-29 11:00N 25°48' W 080°15'0 0.0
2017-Oct-29 10:30N 25°48' W 080°15'0 0.0
2017-Oct-29 10:00N 25°48' W 080°15'0 0.0
2017-Oct-29 09:30N 25°48' W 080°15'0 0.0
2017-Oct-29 09:00N 25°48' W 080°15'0 0.0
2017-Oct-29 08:30N 25°48' W 080°15'0 0.0
2017-Oct-29 08:00N 25°48' W 080°15'0 0.0
2017-Oct-29 07:30N 25°48' W 080°15'0 0.0
2017-Oct-29 07:00N 25°48' W 080°15'0 0.0
2017-Oct-29 06:30N 25°48' W 080°15'0 0.0
2017-Oct-29 06:00N 25°48' W 080°15'0 0.0
2017-Oct-29 05:30N 25°48' W 080°15'0 0.0
2017-Oct-29 05:00N 25°48' W 080°15'0 0.0
2017-Oct-29 04:30N 25°48' W 080°15'0 0.0
2017-Oct-29 04:00N 25°48' W 080°15'0 0.0
2017-Oct-28 18:59N 25°48' W 080°15'0 0.0
2017-Oct-28 18:29N 25°48' W 080°15'0 0.0
2017-Oct-28 17:59N 25°48' W 080°15'0 0.0
2017-Oct-28 17:29N 25°48' W 080°15'0 0.0
2017-Oct-28 16:59N 25°48' W 080°15'0 0.0
2017-Oct-28 16:29N 25°48' W 080°15'0 0.0
2017-Oct-28 15:59N 25°48' W 080°15'0 0.0
2017-Oct-28 15:29N 25°48' W 080°15'0 0.0
2017-Oct-28 14:59N 25°48' W 080°15'0 0.0
2017-Oct-28 14:29N 25°48' W 080°15'0 0.0
2017-Oct-28 13:59N 25°48' W 080°15'0 0.0
2017-Oct-28 13:26N 25°48' W 080°15'0 0.0
2017-Oct-28 12:59N 25°48' W 080°15'0 0.0
2017-Oct-28 12:29N 25°48' W 080°15'0 0.0
2017-Oct-28 11:59N 25°48' W 080°15'0 0.0
2017-Oct-28 11:29N 25°48' W 080°15'0 0.0
2017-Oct-28 10:58N 25°48' W 080°15'0 0.0
2017-Oct-28 10:28N 25°48' W 080°15'0 0.0
2017-Oct-28 09:58N 25°48' W 080°15'0 0.0
2017-Oct-28 09:25N 25°48' W 080°15'0 0.0
2017-Oct-28 08:58N 25°48' W 080°15'0 0.0
2017-Oct-28 08:28N 25°48' W 080°15'0 0.0
2017-Oct-28 07:58N 25°48' W 080°15'0 0.0
2017-Oct-28 07:28N 25°48' W 080°15'0 0.0
2017-Oct-28 06:58N 25°48' W 080°15'0 0.0
2017-Oct-28 06:28N 25°48' W 080°15'0 0.0
2017-Oct-28 05:58N 25°48' W 080°15'0 0.0
2017-Oct-28 05:28N 25°48' W 080°15'0 0.0
2017-Oct-28 04:58N 25°48' W 080°15'0 0.0
2017-Oct-28 04:28N 25°48' W 080°15'0 0.0
2017-Oct-28 03:58N 25°48' W 080°15'0 0.0
2017-Oct-28 03:28N 25°48' W 080°15'0 0.0
2017-Oct-28 02:58N 25°48' W 080°15'0 0.0
2017-Oct-28 02:28N 25°48' W 080°15'0 0.0
2017-Oct-28 01:58N 25°48' W 080°15'0 0.0
2017-Oct-28 01:28N 25°48' W 080°15'0 0.0
2017-Oct-28 00:58N 25°48' W 080°15'0 0.0
2017-Oct-28 00:25N 25°48' W 080°15'0 0.0
2017-Oct-27 23:58N 25°48' W 080°15'0 0.0
2017-Oct-27 23:28N 25°48' W 080°15'0 0.0
2017-Oct-27 22:58N 25°48' W 080°15'0 0.0
2017-Oct-27 22:28N 25°48' W 080°15'0 0.0
2017-Oct-27 21:58N 25°48' W 080°15'0 0.0
2017-Oct-27 21:28N 25°48' W 080°15'0 0.0
2017-Oct-27 20:58N 25°48' W 080°15'0 0.0
2017-Oct-27 20:28N 25°48' W 080°15'0 0.0
2017-Oct-27 19:58N 25°48' W 080°15'0 0.0
2017-Oct-27 19:28N 25°48' W 080°15'0 0.0
2017-Oct-27 18:58N 25°48' W 080°15'0 0.0
2017-Oct-27 18:28N 25°48' W 080°15'0 0.0
2017-Oct-27 17:58N 25°48' W 080°15'0 0.0
2017-Oct-27 17:28N 25°48' W 080°15'0 0.0
2017-Oct-27 16:58N 25°48' W 080°15'0 0.0
2017-Oct-27 16:28N 25°48' W 080°15'0 0.0
2017-Oct-27 15:58N 25°48' W 080°15'0 0.0
2017-Oct-27 15:25N 25°48' W 080°15'0 0.0
2017-Oct-27 14:58N 25°48' W 080°15'0 0.0
2017-Oct-27 14:31N 25°48' W 080°15'0 0.0
2017-Oct-27 14:01N 25°48' W 080°15'0 0.0
2017-Oct-27 13:28N 25°48' W 080°15'0 0.0
2017-Oct-27 13:00N 25°48' W 080°15'0 0.0
2017-Oct-27 12:30N 25°48' W 080°15'0 0.0
2017-Oct-27 12:00N 25°48' W 080°15'0 0.0
2017-Oct-27 11:30N 25°48' W 080°15'0 0.0
2017-Oct-27 11:00N 25°48' W 080°15'0 0.0
2017-Oct-27 10:30N 25°48' W 080°15'0 0.0
2017-Oct-27 09:54N 25°48' W 080°15'0 0.0
2017-Oct-27 09:30N 25°48' W 080°15'0 0.0
2017-Oct-27 09:00N 25°48' W 080°15'0 0.0
2017-Oct-27 08:30N 25°48' W 080°15'0 0.0
2017-Oct-27 08:00N 25°48' W 080°15'0 0.0
2017-Oct-27 07:30N 25°48' W 080°15'0 0.0
2017-Oct-27 07:00N 25°48' W 080°15'0 0.0
2017-Oct-27 06:30N 25°48' W 080°15'0 0.0
2017-Oct-27 06:00N 25°48' W 080°15'0 0.0
2017-Oct-27 05:30N 25°48' W 080°15'0 0.0
2017-Oct-27 05:00N 25°48' W 080°15'0 0.0
2017-Oct-27 04:30N 25°48' W 080°15'0 0.0
2017-Oct-27 03:57N 25°48' W 080°15'0 0.1
2017-Oct-27 03:30N 25°48' W 080°15'0 0.0
2017-Oct-27 03:00N 25°48' W 080°15'0 0.0
2017-Oct-27 02:30N 25°48' W 080°15'0 0.0
2017-Oct-27 01:54N 25°48' W 080°15'0 0.0
2017-Oct-27 01:30N 25°48' W 080°15'0 0.0
2017-Oct-27 01:00N 25°48' W 080°15'0 0.0
2017-Oct-27 00:24N 25°48' W 080°15'  
Track history (hours):
 
Tides and Currents Weather Stations Pressure Air Temp Water Temp Dewpoint Dewpoint Depression Visibility Wind Speed Wind Dir Waves Ship Positions

Tanica Sunbeam

Last reported at 2017-Nov-06 00:03 UTC. Time now 2017-Nov-21 11:54 UTC.
Position N 25°28' W 079°47'.
Warning: this ship's position is 15 days out of date.

Length 66 m; draft 2.8 m.

Type: Cargo ship. MMSI: 219208000.

Date/timePositionNaut miles runAvg speedWind from/ knotsBaromVisibWave heightAir tempDewpointWater temp
2017-Nov-06 00:03N 25°28' W 079°47'1 5.9
2017-Nov-05 23:53N 25°29' W 079°48'2 5.8
2017-Nov-05 23:30N 25°30' W 079°49'3 5.6
2017-Nov-05 23:00N 25°33' W 079°51'3 5.7
2017-Nov-05 22:30N 25°35' W 079°53'3 5.7
2017-Nov-05 22:00N 25°37' W 079°55'3 5.7
2017-Nov-05 21:30N 25°39' W 079°57'3 5.5
2017-Nov-05 21:00N 25°41' W 079°59'3 6.0
2017-Nov-05 20:30N 25°43' W 080°02'3 6.8
2017-Nov-05 20:00N 25°45' W 080°04'4 7.8
2017-Nov-05 19:30N 25°46' W 080°09'3 5.1
2017-Nov-05 19:00N 25°46' W 080°12'2 3.1
2017-Nov-05 18:30N 25°47' W 080°13'2 3.2
2017-Nov-05 18:00N 25°48' W 080°15'1 1.3
2017-Nov-05 17:24N 25°48' W 080°15'0 0.0
2017-Nov-05 17:00N 25°48' W 080°15'0 0.0
2017-Nov-05 16:27N 25°48' W 080°15'0 0.0
2017-Nov-05 15:54N 25°48' W 080°15'0 0.0
2017-Nov-05 15:30N 25°48' W 080°15'0 0.0
2017-Nov-05 14:57N 25°48' W 080°15'0 0.0
2017-Nov-05 14:27N 25°48' W 080°15'0 0.0
2017-Nov-05 14:00N 25°48' W 080°15'0 0.0
2017-Nov-05 13:27N 25°48' W 080°15'0 0.0
2017-Nov-05 12:57N 25°48' W 080°15'0 0.0
2017-Nov-05 12:30N 25°48' W 080°15'0 0.0
2017-Nov-05 12:00N 25°48' W 080°15'0 0.0
2017-Nov-05 11:30N 25°48' W 080°15'0 0.0
2017-Nov-05 11:00N 25°48' W 080°15'0 0.0
2017-Nov-05 10:27N 25°48' W 080°15'0 0.0
2017-Nov-05 10:00N 25°48' W 080°15'0 0.0
2017-Nov-05 09:30N 25°48' W 080°15'0 0.0
2017-Nov-05 09:00N 25°48' W 080°15'0 0.0
2017-Nov-05 08:30N 25°48' W 080°15'0 0.0
2017-Nov-05 08:00N 25°48' W 080°15'0 0.0
2017-Nov-05 07:23N 25°48' W 080°15'0 0.0
2017-Nov-05 06:59N 25°48' W 080°15'0 0.0
2017-Nov-05 06:23N 25°48' W 080°15'0 0.0
2017-Nov-05 05:56N 25°48' W 080°15'0 0.0
2017-Nov-05 05:26N 25°48' W 080°15'0 0.0
2017-Nov-05 04:59N 25°48' W 080°15'0 0.0
2017-Nov-05 04:26N 25°48' W 080°15'0 0.0
2017-Nov-05 03:59N 25°48' W 080°15'0 0.0
2017-Nov-05 03:29N 25°48' W 080°15'0 0.0
2017-Nov-05 02:59N 25°48' W 080°15'0 0.0
2017-Nov-05 02:29N 25°48' W 080°15'0 0.0
2017-Nov-05 01:59N 25°48' W 080°15'0 0.0
2017-Nov-05 01:29N 25°48' W 080°15'0 0.0
2017-Nov-05 00:59N 25°48' W 080°15'0 0.0
2017-Nov-05 00:26N 25°48' W 080°15'0 0.0
2017-Nov-04 23:59N 25°48' W 080°15'0 0.0
2017-Nov-04 23:26N 25°48' W 080°15'0 0.0
2017-Nov-04 22:59N 25°48' W 080°15'0 0.0
2017-Nov-04 22:23N 25°48' W 080°15'0 0.0
2017-Nov-04 21:56N 25°48' W 080°15'0 0.0
2017-Nov-04 21:29N 25°48' W 080°15'0 0.0
2017-Nov-04 20:59N 25°48' W 080°15'0 0.0
2017-Nov-04 20:29N 25°48' W 080°15'0 0.0
2017-Nov-04 19:59N 25°48' W 080°15'0 0.0
2017-Nov-04 19:26N 25°48' W 080°15'0 0.0
2017-Nov-04 18:59N 25°48' W 080°15'0 0.0
2017-Nov-04 18:29N 25°48' W 080°15'0 0.0
2017-Nov-04 17:58N 25°48' W 080°15'0 0.0
2017-Nov-04 17:28N 25°48' W 080°15'0 0.0
2017-Nov-04 16:58N 25°48' W 080°15'0 0.0
2017-Nov-04 16:28N 25°48' W 080°15'0 0.0
2017-Nov-04 15:58N 25°48' W 080°15'0 0.0
2017-Nov-04 15:28N 25°48' W 080°15'0 0.0
2017-Nov-04 14:58N 25°48' W 080°15'0 0.0
2017-Nov-04 14:28N 25°48' W 080°15'0 0.0
2017-Nov-04 13:58N 25°48' W 080°15'0 0.0
2017-Nov-04 13:25N 25°48' W 080°15'0 0.0
2017-Nov-04 12:58N 25°48' W 080°15'0 0.0
2017-Nov-04 12:28N 25°48' W 080°15'0 0.0
2017-Nov-04 11:58N 25°48' W 080°15'0 0.0
2017-Nov-04 11:28N 25°48' W 080°15'0 0.0
2017-Nov-04 10:58N 25°48' W 080°15'0 0.0
2017-Nov-04 10:28N 25°48' W 080°15'0 0.0
2017-Nov-04 09:58N 25°48' W 080°15'0 0.0
2017-Nov-04 09:28N 25°48' W 080°15'0 0.0
2017-Nov-04 08:58N 25°48' W 080°15'0 0.0
2017-Nov-04 08:28N 25°48' W 080°15'0 0.0
2017-Nov-04 07:58N 25°48' W 080°15'0 0.0
2017-Nov-04 07:28N 25°48' W 080°15'0 0.0
2017-Nov-04 06:58N 25°48' W 080°15'0 0.0
2017-Nov-04 06:28N 25°48' W 080°15'0 0.0
2017-Nov-04 05:58N 25°48' W 080°15'0 0.0
2017-Nov-04 05:28N 25°48' W 080°15'0 0.0
2017-Nov-04 05:01N 25°48' W 080°15'0 0.0
2017-Nov-04 04:31N 25°48' W 080°15'0 0.0
2017-Nov-04 04:00N 25°48' W 080°15'0 0.0
2017-Nov-04 03:30N 25°48' W 080°15'0 0.0
2017-Nov-04 03:00N 25°48' W 080°15'0 0.0
2017-Nov-04 02:30N 25°48' W 080°15'0 0.0
2017-Nov-04 02:00N 25°48' W 080°15'0 0.0
2017-Nov-04 01:30N 25°48' W 080°15'0 0.0
2017-Nov-04 00:57N 25°48' W 080°15'0 0.0
2017-Nov-04 00:30N 25°48' W 080°15'0 0.0
2017-Nov-04 00:00N 25°48' W 080°15'0 0.0
2017-Nov-03 23:30N 25°48' W 080°15'0 0.0
2017-Nov-03 23:00N 25°48' W 080°15'0 0.0
2017-Nov-03 22:30N 25°48' W 080°15'0 0.0
2017-Nov-03 22:00N 25°48' W 080°15'0 0.0
2017-Nov-03 21:30N 25°48' W 080°15'0 0.0
2017-Nov-03 21:00N 25°48' W 080°15'0 0.0
2017-Nov-03 20:30N 25°48' W 080°15'0 0.0
2017-Nov-03 19:57N 25°48' W 080°15'0 0.0
2017-Nov-03 19:30N 25°48' W 080°15'0 0.0
2017-Nov-03 18:54N 25°48' W 080°15'0 0.0
2017-Nov-03 18:30N 25°48' W 080°15'0 0.0
2017-Nov-03 17:51N 25°48' W 080°15'0 0.0
2017-Nov-03 17:30N 25°48' W 080°15'0 0.0
2017-Nov-03 17:00N 25°48' W 080°15'0 0.0
2017-Nov-03 16:27N 25°48' W 080°15'0 0.0
2017-Nov-03 16:00N 25°48' W 080°15'0 0.0
2017-Nov-03 15:30N 25°48' W 080°15'0 0.0
2017-Nov-03 15:00N 25°48' W 080°15'0 0.0
2017-Nov-03 14:30N 25°48' W 080°15'0 0.0
2017-Nov-03 14:00N 25°48' W 080°15'0 0.0
2017-Nov-03 13:27N 25°48' W 080°15'0 0.0
2017-Nov-03 13:00N 25°48' W 080°15'0 0.0
2017-Nov-03 12:30N 25°48' W 080°15'0 0.0
2017-Nov-03 12:00N 25°48' W 080°15'0 0.0
2017-Nov-03 11:30N 25°48' W 080°15'0 0.0
2017-Nov-03 10:57N 25°48' W 080°15'0 0.0
2017-Nov-03 10:30N 25°48' W 080°15'0 0.0
2017-Nov-03 10:00N 25°48' W 080°15'0 0.0
2017-Nov-03 09:29N 25°48' W 080°15'0 0.0
2017-Nov-03 08:59N 25°48' W 080°15'0 0.0
2017-Nov-03 08:29N 25°48' W 080°15'0 0.0
2017-Nov-03 07:53N 25°48' W 080°15'0 0.0
2017-Nov-03 07:29N 25°48' W 080°15'0 0.0
2017-Nov-03 06:53N 25°48' W 080°15'0 0.0
2017-Nov-03 06:26N 25°48' W 080°15'0 0.0
2017-Nov-03 05:59N 25°48' W 080°15'0 0.0
2017-Nov-03 05:29N 25°48' W 080°15'0 0.0
2017-Nov-03 04:59N 25°48' W 080°15'0 0.0
2017-Nov-03 04:29N 25°48' W 080°15'0 0.0
2017-Nov-03 03:59N 25°48' W 080°15'0 0.0
2017-Nov-03 03:23N 25°48' W 080°15'0 0.0
2017-Nov-03 02:59N 25°48' W 080°15'0 0.0
2017-Nov-03 02:26N 25°48' W 080°15'0 0.0
2017-Nov-03 01:59N 25°48' W 080°15'0 0.0
2017-Nov-03 01:29N 25°48' W 080°15'0 0.0
2017-Nov-03 00:59N 25°48' W 080°15'0 0.0
2017-Nov-03 00:29N 25°48' W 080°15'0 0.0
2017-Nov-02 23:56N 25°48' W 080°15'0 0.0
2017-Nov-02 23:29N 25°48' W 080°15'0 0.0
2017-Nov-02 22:53N 25°48' W 080°15'0 0.0
2017-Nov-02 22:29N 25°48' W 080°15'0 0.0
2017-Nov-02 21:56N 25°48' W 080°15'0 0.0
2017-Nov-02 21:29N 25°48' W 080°15'0 0.0
2017-Nov-02 20:59N 25°48' W 080°15'0 0.0
2017-Nov-02 20:29N 25°48' W 080°15'0 0.0
2017-Nov-02 19:56N 25°48' W 080°15'0 0.0
2017-Nov-02 19:29N 25°48' W 080°15'0 0.0
2017-Nov-02 18:59N 25°48' W 080°15'0 0.0
2017-Nov-02 18:29N 25°48' W 080°15'0 0.0
2017-Nov-02 17:59N 25°48' W 080°15'0 0.0
2017-Nov-02 17:29N 25°48' W 080°15'0 0.0
2017-Nov-02 16:59N 25°48' W 080°15'0 0.0
2017-Nov-02 16:29N 25°48' W 080°15'0 0.0
2017-Nov-02 15:53N 25°48' W 080°15'0 0.0
2017-Nov-02 15:28N 25°48' W 080°15'0 0.0
2017-Nov-02 14:58N 25°48' W 080°15'0 0.0
2017-Nov-02 14:28N 25°48' W 080°15'0 0.0
2017-Nov-02 13:55N 25°48' W 080°15'0 0.0
2017-Nov-02 13:25N 25°48' W 080°15'0 0.0
2017-Nov-02 12:58N 25°48' W 080°15'0 0.0
2017-Nov-02 12:28N 25°48' W 080°15'0 0.0
2017-Nov-02 11:58N 25°48' W 080°15'0 0.0
2017-Nov-02 11:28N 25°48' W 080°15'0 0.0
2017-Nov-02 10:58N 25°48' W 080°15'0 0.0
2017-Nov-02 10:28N 25°48' W 080°15'0 0.0
2017-Nov-02 09:58N 25°48' W 080°15'0 0.0
2017-Nov-02 09:28N 25°48' W 080°15'0 0.0
2017-Nov-02 08:55N 25°48' W 080°15'0 0.0
2017-Nov-02 08:25N 25°48' W 080°15'0 0.0
2017-Nov-02 07:58N 25°48' W 080°15'0 0.0
2017-Nov-02 07:31N 25°48' W 080°15'0 0.0
2017-Nov-02 07:01N 25°48' W 080°15'0 0.0
2017-Nov-02 06:30N 25°48' W 080°15'0 0.0
2017-Nov-02 06:00N 25°48' W 080°15'0 0.0
2017-Nov-02 05:30N 25°48' W 080°15'0 0.0
2017-Nov-02 05:00N 25°48' W 080°15'0 0.0
2017-Nov-02 04:27N 25°48' W 080°15'0 0.0
2017-Nov-02 04:00N 25°48' W 080°15'0 0.0
2017-Nov-02 03:30N 25°48' W 080°15'0 0.0
2017-Nov-02 03:00N 25°48' W 080°15'0 0.0
2017-Nov-02 02:30N 25°48' W 080°15'0 0.0
2017-Nov-02 02:00N 25°48' W 080°15'0 0.0
2017-Nov-02 01:30N 25°48' W 080°15'0 0.0
2017-Nov-02 01:00N 25°48' W 080°15'0 0.0
2017-Nov-02 00:30N 25°48' W 080°15'0 0.0
2017-Nov-01 23:57N 25°48' W 080°15'0 0.0
2017-Nov-01 23:27N 25°48' W 080°15'0 0.0
2017-Nov-01 23:00N 25°48' W 080°15'0 0.0
2017-Nov-01 22:30N 25°48' W 080°15'0 0.0
2017-Nov-01 21:57N 25°48' W 080°15'0 0.0
2017-Nov-01 21:30N 25°48' W 080°15'0 0.0
2017-Nov-01 20:57N 25°48' W 080°15'0 0.0
2017-Nov-01 20:30N 25°48' W 080°15'0 0.0
2017-Nov-01 20:00N 25°48' W 080°15'0 0.0
2017-Nov-01 19:30N 25°48' W 080°15'0 0.0
2017-Nov-01 19:00N 25°48' W 080°15'0 0.0
2017-Nov-01 18:26N 25°48' W 080°15'0 0.0
2017-Nov-01 01:55N 25°48' W 080°15'0 0.0
2017-Nov-01 01:28N 25°48' W 080°15'0 0.0
2017-Nov-01 00:55N 25°48' W 080°15'0 0.0
2017-Nov-01 00:28N 25°48' W 080°15'0 0.0
2017-Oct-31 23:58N 25°48' W 080°15'0 0.0
2017-Oct-31 23:28N 25°48' W 080°15'0 0.0
2017-Oct-31 22:58N 25°48' W 080°15'0 0.0
2017-Oct-31 22:28N 25°48' W 080°15'0 0.0
2017-Oct-31 21:58N 25°48' W 080°15'0 0.0
2017-Oct-31 21:28N 25°48' W 080°15'0 0.0
2017-Oct-31 20:58N 25°48' W 080°15'0 0.0
2017-Oct-31 20:28N 25°48' W 080°15'0 0.0
2017-Oct-31 19:58N 25°48' W 080°15'0 0.0
2017-Oct-31 19:28N 25°48' W 080°15'0 0.0
2017-Oct-31 18:58N 25°48' W 080°15'0 0.0
2017-Oct-31 18:31N 25°48' W 080°15'0 0.0
2017-Oct-31 18:00N 25°48' W 080°15'0 0.0
2017-Oct-31 17:30N 25°48' W 080°15'0 0.0
2017-Oct-31 17:00N 25°48' W 080°15'0 0.0
2017-Oct-31 16:30N 25°48' W 080°15'0 0.0
2017-Oct-31 16:00N 25°48' W 080°15'0 0.0
2017-Oct-31 15:30N 25°48' W 080°15'0 0.0
2017-Oct-31 14:57N 25°48' W 080°15'0 0.0
2017-Oct-31 14:30N 25°48' W 080°15'0 0.0
2017-Oct-31 13:57N 25°48' W 080°15'0 0.0
2017-Oct-31 13:30N 25°48' W 080°15'0 0.0
2017-Oct-31 13:00N 25°48' W 080°15'0 0.0
2017-Oct-31 12:27N 25°48' W 080°15'0 0.0
2017-Oct-31 12:00N 25°48' W 080°15'0 0.0
2017-Oct-31 11:29N 25°48' W 080°15'0 0.0
2017-Oct-31 10:59N 25°48' W 080°15'0 0.0
2017-Oct-31 10:29N 25°48' W 080°15'0 0.0
2017-Oct-31 09:59N 25°48' W 080°15'0 0.0
2017-Oct-31 09:29N 25°48' W 080°15'0 0.0
2017-Oct-31 08:59N 25°48' W 080°15'0 0.0
2017-Oct-31 08:29N 25°48' W 080°15'0 0.0
2017-Oct-31 07:59N 25°48' W 080°15'0 0.0
2017-Oct-31 07:29N 25°48' W 080°15'0 0.0
2017-Oct-31 06:59N 25°48' W 080°15'0 0.0
2017-Oct-31 06:29N 25°48' W 080°15'0 0.0
2017-Oct-31 05:59N 25°48' W 080°15'0 0.0
2017-Oct-31 05:29N 25°48' W 080°15'0 0.0
2017-Oct-31 04:59N 25°48' W 080°15'0 0.0
2017-Oct-31 04:29N 25°48' W 080°15'0 0.0
2017-Oct-31 03:59N 25°48' W 080°15'0 0.0
2017-Oct-31 03:29N 25°48' W 080°15'0 0.0
2017-Oct-31 02:59N 25°48' W 080°15'0 0.0
2017-Oct-31 02:26N 25°48' W 080°15'0 0.0
2017-Oct-31 01:59N 25°48' W 080°15'0 0.0
2017-Oct-31 01:29N 25°48' W 080°15'0 0.0
2017-Oct-31 00:59N 25°48' W 080°15'0 0.0
2017-Oct-31 00:29N 25°48' W 080°15'0 0.0
2017-Oct-30 23:59N 25°48' W 080°15'0 0.0
2017-Oct-30 23:28N 25°48' W 080°15'0 0.0
2017-Oct-30 22:58N 25°48' W 080°15'0 0.0
2017-Oct-30 22:28N 25°48' W 080°15'0 0.0
2017-Oct-30 21:58N 25°48' W 080°15'0 0.0
2017-Oct-30 21:28N 25°48' W 080°15'0 0.0
2017-Oct-30 20:58N 25°48' W 080°15'0 0.0
2017-Oct-30 20:28N 25°48' W 080°15'0 0.0
2017-Oct-30 19:58N 25°48' W 080°15'0 0.0
2017-Oct-30 19:28N 25°48' W 080°15'0 0.0
2017-Oct-30 18:58N 25°48' W 080°15'0 0.0
2017-Oct-30 18:28N 25°48' W 080°15'0 0.0
2017-Oct-30 17:58N 25°48' W 080°15'0 0.0
2017-Oct-30 17:28N 25°48' W 080°15'0 0.0
2017-Oct-30 16:58N 25°48' W 080°15'0 0.0
2017-Oct-30 16:19N 25°48' W 080°15'0 0.0
2017-Oct-30 15:58N 25°48' W 080°15'0 0.0
2017-Oct-30 15:28N 25°48' W 080°15'0 0.0
2017-Oct-30 14:58N 25°48' W 080°15'0 0.0
2017-Oct-30 13:58N 25°48' W 080°15'0 0.0
2017-Oct-30 13:25N 25°48' W 080°15'0 0.0
2017-Oct-30 12:55N 25°48' W 080°15'0 0.0
2017-Oct-30 12:25N 25°48' W 080°15'0 0.0
2017-Oct-30 11:52N 25°48' W 080°15'0 0.0
2017-Oct-30 11:25N 25°48' W 080°15'0 0.0
2017-Oct-30 10:58N 25°48' W 080°15'0 0.0
2017-Oct-30 10:28N 25°48' W 080°15'0 0.0
2017-Oct-30 09:58N 25°48' W 080°15'0 0.0
2017-Oct-30 09:28N 25°48' W 080°15'0 0.0
2017-Oct-30 08:58N 25°48' W 080°15'0 0.0
2017-Oct-30 08:28N 25°48' W 080°15'0 0.0
2017-Oct-30 07:52N 25°48' W 080°15'0 0.0
2017-Oct-30 07:28N 25°48' W 080°15'0 0.0
2017-Oct-30 06:58N 25°48' W 080°15'0 0.0
2017-Oct-30 06:28N 25°48' W 080°15'0 0.0
2017-Oct-30 05:58N 25°48' W 080°15'0 0.0
2017-Oct-30 05:25N 25°48' W 080°15'0 0.0
2017-Oct-30 04:58N 25°48' W 080°15'0 0.0
2017-Oct-30 04:22N 25°48' W 080°15'0 0.0
2017-Oct-30 03:58N 25°48' W 080°15'0 0.0
2017-Oct-30 03:28N 25°48' W 080°15'0 0.0
2017-Oct-30 02:58N 25°48' W 080°15'0 0.0
2017-Oct-30 02:28N 25°48' W 080°15'0 0.0
2017-Oct-30 01:55N 25°48' W 080°15'0 0.0
2017-Oct-30 01:28N 25°48' W 080°15'0 0.0
2017-Oct-30 00:58N 25°48' W 080°15'0 0.0
2017-Oct-30 00:28N 25°48' W 080°15'0 0.0
2017-Oct-29 23:58N 25°48' W 080°15'0 0.0
2017-Oct-29 23:28N 25°48' W 080°15'0 0.0
2017-Oct-29 22:58N 25°48' W 080°15'0 0.0
2017-Oct-29 22:28N 25°48' W 080°15'0 0.0
2017-Oct-29 21:58N 25°48' W 080°15'0 0.0
2017-Oct-29 21:28N 25°48' W 080°15'0 0.0
2017-Oct-29 20:58N 25°48' W 080°15'0 0.0
2017-Oct-29 20:28N 25°48' W 080°15'0 0.0
2017-Oct-29 19:57N 25°48' W 080°15'0 0.0
2017-Oct-29 19:30N 25°48' W 080°15'0 0.0
2017-Oct-29 18:57N 25°48' W 080°15'0 0.0
2017-Oct-29 18:30N 25°48' W 080°15'0 0.0
2017-Oct-29 18:00N 25°48' W 080°15'0 0.0
2017-Oct-29 17:30N 25°48' W 080°15'0 0.0
2017-Oct-29 17:00N 25°48' W 080°15'0 0.0
2017-Oct-29 16:30N 25°48' W 080°15'0 0.0
2017-Oct-29 16:00N 25°48' W 080°15'0 0.0
2017-Oct-29 15:30N 25°48' W 080°15'0 0.0
2017-Oct-29 15:00N 25°48' W 080°15'0 0.0
2017-Oct-29 14:30N 25°48' W 080°15'0 0.0
2017-Oct-29 14:00N 25°48' W 080°15'0 0.0
2017-Oct-29 13:30N 25°48' W 080°15'0 0.0
2017-Oct-29 13:00N 25°48' W 080°15'0 0.0
2017-Oct-29 12:30N 25°48' W 080°15'0 0.0
2017-Oct-29 12:00N 25°48' W 080°15'0 0.0
2017-Oct-29 11:30N 25°48' W 080°15'0 0.0
2017-Oct-29 11:00N 25°48' W 080°15'0 0.0
2017-Oct-29 10:30N 25°48' W 080°15'0 0.0
2017-Oct-29 10:00N 25°48' W 080°15'0 0.0
2017-Oct-29 09:30N 25°48' W 080°15'0 0.0
2017-Oct-29 09:00N 25°48' W 080°15'0 0.0
2017-Oct-29 08:30N 25°48' W 080°15'0 0.0
2017-Oct-29 08:00N 25°48' W 080°15'0 0.0
2017-Oct-29 07:30N 25°48' W 080°15'0 0.0
2017-Oct-29 07:00N 25°48' W 080°15'0 0.0
2017-Oct-29 06:30N 25°48' W 080°15'0 0.0
2017-Oct-29 06:00N 25°48' W 080°15'0 0.0
2017-Oct-29 05:30N 25°48' W 080°15'0 0.0
2017-Oct-29 05:00N 25°48' W 080°15'0 0.0
2017-Oct-29 04:30N 25°48' W 080°15'0 0.0
2017-Oct-29 04:00N 25°48' W 080°15'0 0.0
2017-Oct-28 18:59N 25°48' W 080°15'0 0.0
2017-Oct-28 18:29N 25°48' W 080°15'0 0.0
2017-Oct-28 17:59N 25°48' W 080°15'0 0.0
2017-Oct-28 17:29N 25°48' W 080°15'0 0.0
2017-Oct-28 16:59N 25°48' W 080°15'0 0.0
2017-Oct-28 16:29N 25°48' W 080°15'0 0.0
2017-Oct-28 15:59N 25°48' W 080°15'0 0.0
2017-Oct-28 15:29N 25°48' W 080°15'0 0.0
2017-Oct-28 14:59N 25°48' W 080°15'0 0.0
2017-Oct-28 14:29N 25°48' W 080°15'0 0.0
2017-Oct-28 13:59N 25°48' W 080°15'0 0.0
2017-Oct-28 13:26N 25°48' W 080°15'0 0.0
2017-Oct-28 12:59N 25°48' W 080°15'0 0.0
2017-Oct-28 12:29N 25°48' W 080°15'0 0.0
2017-Oct-28 11:59N 25°48' W 080°15'0 0.0
2017-Oct-28 11:29N 25°48' W 080°15'0 0.0
2017-Oct-28 10:58N 25°48' W 080°15'0 0.0
2017-Oct-28 10:28N 25°48' W 080°15'0 0.0
2017-Oct-28 09:58N 25°48' W 080°15'0 0.0
2017-Oct-28 09:25N 25°48' W 080°15'0 0.0
2017-Oct-28 08:58N 25°48' W 080°15'0 0.0
2017-Oct-28 08:28N 25°48' W 080°15'0 0.0
2017-Oct-28 07:58N 25°48' W 080°15'0 0.0
2017-Oct-28 07:28N 25°48' W 080°15'0 0.0
2017-Oct-28 06:58N 25°48' W 080°15'0 0.0
2017-Oct-28 06:28N 25°48' W 080°15'0 0.0
2017-Oct-28 05:58N 25°48' W 080°15'0 0.0
2017-Oct-28 05:28N 25°48' W 080°15'0 0.0
2017-Oct-28 04:58N 25°48' W 080°15'0 0.0
2017-Oct-28 04:28N 25°48' W 080°15'0 0.0
2017-Oct-28 03:58N 25°48' W 080°15'0 0.0
2017-Oct-28 03:28N 25°48' W 080°15'0 0.0
2017-Oct-28 02:58N 25°48' W 080°15'0 0.0
2017-Oct-28 02:28N 25°48' W 080°15'0 0.0
2017-Oct-28 01:58N 25°48' W 080°15'0 0.0
2017-Oct-28 01:28N 25°48' W 080°15'0 0.0
2017-Oct-28 00:58N 25°48' W 080°15'0 0.0
2017-Oct-28 00:25N 25°48' W 080°15'0 0.0
2017-Oct-27 23:58N 25°48' W 080°15'0 0.0
2017-Oct-27 23:28N 25°48' W 080°15'0 0.0
2017-Oct-27 22:58N 25°48' W 080°15'0 0.0
2017-Oct-27 22:28N 25°48' W 080°15'0 0.0
2017-Oct-27 21:58N 25°48' W 080°15'0 0.0
2017-Oct-27 21:28N 25°48' W 080°15'0 0.0
2017-Oct-27 20:58N 25°48' W 080°15'0 0.0
2017-Oct-27 20:28N 25°48' W 080°15'0 0.0
2017-Oct-27 19:58N 25°48' W 080°15'0 0.0
2017-Oct-27 19:28N 25°48' W 080°15'0 0.0
2017-Oct-27 18:58N 25°48' W 080°15'0 0.0
2017-Oct-27 18:28N 25°48' W 080°15'0 0.0
2017-Oct-27 17:58N 25°48' W 080°15'0 0.0
2017-Oct-27 17:28N 25°48' W 080°15'0 0.0
2017-Oct-27 16:58N 25°48' W 080°15'0 0.0
2017-Oct-27 16:28N 25°48' W 080°15'0 0.0
2017-Oct-27 15:58N 25°48' W 080°15'0 0.0
2017-Oct-27 15:25N 25°48' W 080°15'0 0.0
2017-Oct-27 14:58N 25°48' W 080°15'0 0.0
2017-Oct-27 14:31N 25°48' W 080°15'0 0.0
2017-Oct-27 14:01N 25°48' W 080°15'0 0.0
2017-Oct-27 13:28N 25°48' W 080°15'0 0.0
2017-Oct-27 13:00N 25°48' W 080°15'0 0.0
2017-Oct-27 12:30N 25°48' W 080°15'0 0.0
2017-Oct-27 12:00N 25°48' W 080°15'0 0.0
2017-Oct-27 11:30N 25°48' W 080°15'0 0.0
2017-Oct-27 11:00N 25°48' W 080°15'0 0.0
2017-Oct-27 10:30N 25°48' W 080°15'0 0.0
2017-Oct-27 09:54N 25°48' W 080°15'0 0.0
2017-Oct-27 09:30N 25°48' W 080°15'0 0.0
2017-Oct-27 09:00N 25°48' W 080°15'0 0.0
2017-Oct-27 08:30N 25°48' W 080°15'0 0.0
2017-Oct-27 08:00N 25°48' W 080°15'0 0.0
2017-Oct-27 07:30N 25°48' W 080°15'0 0.0
2017-Oct-27 07:00N 25°48' W 080°15'0 0.0
2017-Oct-27 06:30N 25°48' W 080°15'0 0.0
2017-Oct-27 06:00N 25°48' W 080°15'0 0.0
2017-Oct-27 05:30N 25°48' W 080°15'0 0.0
2017-Oct-27 05:00N 25°48' W 080°15'0 0.0
2017-Oct-27 04:30N 25°48' W 080°15'0 0.0
2017-Oct-27 03:57N 25°48' W 080°15'0 0.1
2017-Oct-27 03:30N 25°48' W 080°15'0 0.0
2017-Oct-27 03:00N 25°48' W 080°15'0 0.0
2017-Oct-27 02:30N 25°48' W 080°15'0 0.0
2017-Oct-27 01:54N 25°48' W 080°15'0 0.0
2017-Oct-27 01:30N 25°48' W 080°15'0 0.0
2017-Oct-27 01:00N 25°48' W 080°15'0 0.0
2017-Oct-27 00:24N 25°48' W 080°15'  

Dump ship's entire track history